KMTP/MTP METAR and TAF weather

Enter ICAO airport designator
Station Type Date Time Source
KMTP METAR 2019/09/21 04:54 UTC NOAA

KMTP 210454Z AUTO 26003KT 19/15 A3017 RMK AO1 SLP214 T01890150 402390128


Station Type Date Time Source
KMTP Decoded METAR 2019/09/21 04:54 UTC NOAA

MONTAUK AIRPORT, NY, United States (KMTP) 41-04N 071-55W 2M
Sep 21, 2019 - 12:54 AM EDT / 2019.09.21 0454 UTC
Wind: from the W (260 degrees) at 3 MPH (3 KT):0
Temperature: 66.0 F (18.9 C)
Dew Point: 59.0 F (15.0 C)
Relative Humidity: 78%
Pressure (altimeter): 30.17 in. Hg (1021 hPa)
ob: KMTP 210454Z AUTO 26003KT 19/15 A3017 RMK AO1 SLP214 T01890150 402390128
cycle: 5

Station Type Date Time Source
KMTP TAF UTC NOAA

Error!

Example: see airport list